CheckWX is a tool to help pilots better visualize weather data.  It is not intended as a substitute for an official pre-flight weather briefing.

03:59:16 UTC

KDSM TAF
Des Moines International Airport
Des Moines, Iowa, USA
KDSM 040520Z 0406/0506 09004KT P6SM FEW180 SCT300

Jul-4@
06:00 UTC

Jul-4 @ 06:00 UTC

Jul-5@
06:00 UTC

Jul-5 @ 06:00 UTC

TAF KDSM 040520Z 0406/0506 09004KT P6SM FEW180 SCT300
Wind
  • 090° at 4 KTS
Cloud Levels
  • Few at 18,000' AGL
  • Scattered at 30,000' AGL